Time;durP1;ratioP1;P1;durP2;ratioP2;P2;SDS_P1;SDS_P2;PMS_P1;PMS_P2;Temp;Humidity;BMP_temperature;BMP_pressure;BME280_temperature;BME280_humidity;BME280_pressure;Samples;Min_cycle;Max_cycle;Signal;HPM_P1;HPM_P2
2024/02/01 00:01:16;;;;;;;3.90;2.07;;;;;;;;;;6183687;28;20298;-57
2024/02/01 00:04:20;;;;;;;2.27;2.17;;;;;;;;;;6184387;28;20293;-59
2024/02/01 00:07:24;;;;;;;7.30;2.10;;;;;;;;;;6183710;28;20305;-56
2024/02/01 00:10:28;;;;;;;5.47;2.17;;;;;;;;;;6183420;28;20298;-58
2024/02/01 00:13:33;;;;;;;8.77;2.10;;;;;;;;;;6183354;28;20300;-58
2024/02/01 00:16:37;;;;;;;1.90;1.80;;;;;;;;;;6183127;28;20300;-58
2024/02/01 00:19:41;;;;;;;2.57;1.70;;;;;;;;;;6183382;28;20582;-59
2024/02/01 00:22:45;;;;;;;3.03;1.70;;;;;;;;;;6183843;28;20369;-58
2024/02/01 00:25:49;;;;;;;2.93;1.73;;;;;;;;;;6182892;28;20301;-58
2024/02/01 00:28:54;;;;;;;3.77;1.70;;;;;;;;;;6184213;28;20301;-58
2024/02/01 00:31:58;;;;;;;2.87;1.93;;;;;;;;;;6187284;28;20581;-58
2024/02/01 00:35:03;;;;;;;1.87;1.60;;;;;;;;;;6187921;28;20480;-58
2024/02/01 00:38:07;;;;;;;3.57;1.83;;;;;;;;;;6188365;28;20302;-56
2024/02/01 00:41:11;;;;;;;1.97;1.83;;;;;;;;;;6187083;28;20577;-57
2024/02/01 00:44:16;;;;;;;5.70;1.80;;;;;;;;;;6186063;28;20308;-58
2024/02/01 00:47:20;;;;;;;1.50;1.50;;;;;;;;;;6187625;28;20309;-57
2024/02/01 00:50:24;;;;;;;1.43;1.37;;;;;;;;;;6187629;28;20301;-58
2024/02/01 00:53:28;;;;;;;1.60;1.60;;;;;;;;;;6187217;28;20298;-57
2024/02/01 00:56:32;;;;;;;1.67;1.30;;;;;;;;;;6188121;28;20437;-58
2024/02/01 00:59:37;;;;;;;1.73;1.50;;;;;;;;;;6187576;28;20297;-59
2024/02/01 01:02:41;;;;;;;1.87;1.37;;;;;;;;;;6186662;28;20302;-58
2024/02/01 01:05:45;;;;;;;1.37;1.37;;;;;;;;;;6187549;28;20293;-57
2024/02/01 01:08:49;;;;;;;1.65;1.27;;;;;;;;;;6187457;28;20293;-57
2024/02/01 01:11:53;;;;;;;1.47;1.27;;;;;;;;;;6186852;28;20289;-56
2024/02/01 01:14:59;;;;;;;1.20;1.20;;;;;;;;;;6186987;28;20301;-58
2024/02/01 01:18:03;;;;;;;1.60;1.60;;;;;;;;;;6187056;28;20300;-57
2024/02/01 01:21:07;;;;;;;1.17;0.90;;;;;;;;;;6186705;28;20341;-57
2024/02/01 01:24:11;;;;;;;1.43;1.13;;;;;;;;;;6187153;28;20400;-57
2024/02/01 01:27:15;;;;;;;1.07;1.07;;;;;;;;;;6185477;28;20482;-57
2024/02/01 01:30:21;;;;;;;1.10;1.10;;;;;;;;;;6186172;28;20321;-58
2024/02/01 01:33:25;;;;;;;1.03;1.03;;;;;;;;;;6186122;28;20289;-57
2024/02/01 01:36:29;;;;;;;1.17;1.17;;;;;;;;;;6186294;28;20293;-57
2024/02/01 01:39:33;;;;;;;1.07;1.00;;;;;;;;;;6186331;28;20290;-57
2024/02/01 01:42:37;;;;;;;1.10;1.10;;;;;;;;;;6185792;28;20313;-57
2024/02/01 01:45:42;;;;;;;1.03;1.03;;;;;;;;;;6186078;28;20296;-56
2024/02/01 01:48:46;;;;;;;1.10;1.10;;;;;;;;;;6186259;28;20305;-57
2024/02/01 01:51:51;;;;;;;1.60;1.00;;;;;;;;;;6185877;28;20346;-56
2024/02/01 01:54:58;;;;;;;2.47;0.90;;;;;;;;;;6186055;28;20297;-58
2024/02/01 01:58:02;;;;;;;1.10;1.07;;;;;;;;;;6186554;28;20285;-58
2024/02/01 02:01:08;;;;;;;2.00;0.93;;;;;;;;;;6185414;28;20325;-57
2024/02/01 02:04:15;;;;;;;1.00;1.00;;;;;;;;;;6185733;28;20293;-58
2024/02/01 02:07:20;;;;;;;1.00;1.00;;;;;;;;;;6184951;28;20485;-58
2024/02/01 02:10:24;;;;;;;1.00;1.00;;;;;;;;;;6167708;28;20401;-59
2024/02/01 02:13:28;;;;;;;0.90;0.90;;;;;;;;;;6185790;28;20404;-57
2024/02/01 02:16:37;;;;;;;0.90;0.90;;;;;;;;;;6185387;28;20293;-57
2024/02/01 02:19:41;;;;;;;1.37;0.97;;;;;;;;;;6185519;28;20318;-56
2024/02/01 02:22:47;;;;;;;0.80;0.80;;;;;;;;;;6185299;28;20376;-57
2024/02/01 02:25:51;;;;;;;2.00;1.03;;;;;;;;;;6185098;28;20288;-58
2024/02/01 02:28:55;;;;;;;3.93;0.80;;;;;;;;;;6185768;28;20301;-58
2024/02/01 02:31:59;;;;;;;2.53;0.90;;;;;;;;;;6184608;28;20546;-57
2024/02/01 02:35:04;;;;;;;0.90;0.90;;;;;;;;;;6184876;28;20320;-57
2024/02/01 02:38:09;;;;;;;1.27;0.83;;;;;;;;;;6185329;28;20302;-58
2024/02/01 02:41:13;;;;;;;1.10;1.00;;;;;;;;;;6184061;28;20305;-57
2024/02/01 02:44:17;;;;;;;0.93;0.90;;;;;;;;;;6167435;28;20297;-56
2024/02/01 02:47:21;;;;;;;1.70;1.10;;;;;;;;;;6184626;28;20301;-57
2024/02/01 02:50:25;;;;;;;2.07;1.23;;;;;;;;;;6184233;28;20305;-58
2024/02/01 02:53:30;;;;;;;1.63;0.97;;;;;;;;;;6181258;28;20326;-55
2024/02/01 02:56:34;;;;;;;2.73;1.00;;;;;;;;;;6158089;28;20303;-57
2024/02/01 02:59:38;;;;;;;2.20;0.93;;;;;;;;;;6184696;28;20293;-57
2024/02/01 03:02:42;;;;;;;2.63;1.00;;;;;;;;;;6184891;28;20302;-56
2024/02/01 03:05:46;;;;;;;1.83;0.90;;;;;;;;;;6184298;28;20293;-57
2024/02/01 03:08:51;;;;;;;2.53;1.20;;;;;;;;;;6177396;28;20360;-56
2024/02/01 03:11:57;;;;;;;2.60;1.20;;;;;;;;;;6184140;28;20289;-56
2024/02/01 03:15:01;;;;;;;3.03;1.00;;;;;;;;;;6183662;28;20293;-57
2024/02/01 03:18:05;;;;;;;3.03;1.07;;;;;;;;;;6184773;28;20581;-56
2024/02/01 03:21:09;;;;;;;2.07;1.20;;;;;;;;;;6184099;28;20316;-55
2024/02/01 03:24:15;;;;;;;1.23;1.13;;;;;;;;;;6186207;28;20304;-57
2024/02/01 03:27:19;;;;;;;4.07;1.40;;;;;;;;;;6183605;28;20367;-59
2024/02/01 03:30:23;;;;;;;1.73;1.33;;;;;;;;;;6184030;28;20301;-54
2024/02/01 03:33:28;;;;;;;1.30;1.20;;;;;;;;;;6184480;28;20293;-58
2024/02/01 03:36:34;;;;;;;4.63;1.30;;;;;;;;;;6183688;28;20317;-58
2024/02/01 03:39:39;;;;;;;1.30;1.20;;;;;;;;;;6183800;28;20300;-56
2024/02/01 03:42:43;;;;;;;4.50;1.40;;;;;;;;;;6183598;28;20297;-57
2024/02/01 03:45:49;;;;;;;7.17;1.80;;;;;;;;;;6184154;28;20561;-58
2024/02/01 03:48:54;;;;;;;2.73;1.47;;;;;;;;;;6183475;28;20292;-59
2024/02/01 03:51:58;;;;;;;2.20;1.30;;;;;;;;;;6181898;28;20305;-59
2024/02/01 03:55:04;;;;;;;4.50;1.30;;;;;;;;;;6183604;28;20300;-58
2024/02/01 03:58:08;;;;;;;1.53;1.37;;;;;;;;;;6183906;28;20296;-56
2024/02/01 04:01:12;;;;;;;3.57;1.30;;;;;;;;;;6182941;28;20305;-55
2024/02/01 04:04:17;;;;;;;3.70;1.40;;;;;;;;;;6183342;28;20320;-56
2024/02/01 04:07:22;;;;;;;3.90;1.37;;;;;;;;;;6187798;28;20293;-55
2024/02/01 04:10:28;;;;;;;3.30;1.40;;;;;;;;;;6186696;28;20292;-57
2024/02/01 04:13:32;;;;;;;4.00;1.63;;;;;;;;;;6187844;28;20312;-57
2024/02/01 04:16:35;;;;;;;7.97;1.63;;;;;;;;;;6171214;28;20300;-57
2024/02/01 04:19:39;;;;;;;3.40;2.17;;;;;;;;;;6186754;28;20550;-58
2024/02/01 04:22:44;;;;;;;3.03;1.60;;;;;;;;;;6187990;28;20298;-58
2024/02/01 04:25:49;;;;;;;5.67;1.93;;;;;;;;;;6187901;28;20349;-54
2024/02/01 04:28:53;;;;;;;3.53;1.53;;;;;;;;;;6187464;28;20293;-58
2024/02/01 04:31:58;;;;;;;4.43;1.90;;;;;;;;;;6188424;28;20293;-57
2024/02/01 04:35:04;;;;;;;6.03;1.60;;;;;;;;;;6164478;28;20562;-57
2024/02/01 04:38:08;;;;;;;5.67;1.70;;;;;;;;;;6163726;28;20294;-58
2024/02/01 04:41:14;;;;;;;6.00;1.77;;;;;;;;;;6164348;28;20305;-57
2024/02/01 04:44:18;;;;;;;4.30;1.63;;;;;;;;;;6163690;28;20566;-59
2024/02/01 04:47:22;;;;;;;9.20;2.17;;;;;;;;;;6164002;28;20612;-56
2024/02/01 04:50:26;;;;;;;6.47;1.73;;;;;;;;;;6163342;28;20373;-53
2024/02/01 04:53:30;;;;;;;8.37;1.80;;;;;;;;;;6163870;28;20479;-58
2024/02/01 04:56:38;;;;;;;3.07;1.73;;;;;;;;;;6164243;28;20295;-58
2024/02/01 04:59:44;;;;;;;6.17;1.87;;;;;;;;;;6163488;28;20322;-57
2024/02/01 05:02:48;;;;;;;9.67;2.50;;;;;;;;;;6163613;28;20292;-57
2024/02/01 05:05:52;;;;;;;8.47;2.30;;;;;;;;;;6163325;28;20298;-58
2024/02/01 05:08:56;;;;;;;8.77;2.27;;;;;;;;;;6162801;28;20433;-57
2024/02/01 05:12:03;;;;;;;6.17;2.63;;;;;;;;;;6182718;28;20300;-58
2024/02/01 05:15:09;;;;;;;8.27;1.90;;;;;;;;;;6168700;28;20308;-58
2024/02/01 05:18:13;;;;;;;6.20;2.03;;;;;;;;;;6185860;28;20298;-58
2024/02/01 05:21:17;;;;;;;7.53;2.00;;;;;;;;;;6187237;28;20426;-57
2024/02/01 05:24:22;;;;;;;6.87;2.00;;;;;;;;;;6185561;28;20320;-57
2024/02/01 05:27:28;;;;;;;11.70;2.33;;;;;;;;;;6186836;28;20296;-57
2024/02/01 05:30:32;;;;;;;7.27;2.00;;;;;;;;;;6186256;28;20558;-59
2024/02/01 05:33:37;;;;;;;4.93;1.87;;;;;;;;;;6186269;28;20295;-56
2024/02/01 05:36:42;;;;;;;8.73;1.93;;;;;;;;;;6186721;28;20300;-56
2024/02/01 05:39:47;;;;;;;7.07;1.80;;;;;;;;;;6185929;28;20297;-57
2024/02/01 05:42:52;;;;;;;5.93;1.70;;;;;;;;;;6186445;28;20309;-57
2024/02/01 05:45:56;;;;;;;8.50;1.93;;;;;;;;;;6185918;28;20471;-57
2024/02/01 05:49:00;;;;;;;5.63;1.67;;;;;;;;;;6186189;28;20401;-57
2024/02/01 05:52:06;;;;;;;7.57;2.03;;;;;;;;;;6188226;28;20306;-57
2024/02/01 05:55:13;;;;;;;6.77;2.00;;;;;;;;;;6185966;28;20603;-58
2024/02/01 05:58:19;;;;;;;8.93;2.23;;;;;;;;;;6185692;28;20455;-58
2024/02/01 06:01:23;;;;;;;9.40;2.37;;;;;;;;;;6186040;28;20304;-57
2024/02/01 06:04:27;;;;;;;8.00;2.07;;;;;;;;;;6185561;28;20292;-57
2024/02/01 06:07:30;;;;;;;5.47;1.90;;;;;;;;;;6185923;28;20320;-58
2024/02/01 06:10:34;;;;;;;8.97;2.50;;;;;;;;;;6185492;28;20579;-56
2024/02/01 06:13:42;;;;;;;8.80;2.10;;;;;;;;;;6185403;28;20328;-57
2024/02/01 06:16:46;;;;;;;4.33;1.60;;;;;;;;;;6186061;28;20299;-58
2024/02/01 06:19:50;;;;;;;8.40;1.93;;;;;;;;;;6185621;28;20324;-56
2024/02/01 06:22:54;;;;;;;9.37;2.07;;;;;;;;;;6185491;28;20296;-56
2024/02/01 06:25:58;;;;;;;10.73;2.13;;;;;;;;;;6185294;28;20596;-57
2024/02/01 06:29:07;;;;;;;5.43;2.30;;;;;;;;;;6184831;28;20291;-59
2024/02/01 06:32:19;;;;;;;6.50;1.83;;;;;;;;;;6185401;28;20307;-58
2024/02/01 06:35:25;;;;;;;3.40;1.70;;;;;;;;;;6185024;28;20305;-58
2024/02/01 06:38:45;;;;;;;10.97;2.10;;;;;;;;;;6184737;28;20288;-58
2024/02/01 06:41:51;;;;;;;5.17;1.73;;;;;;;;;;6185699;28;20299;-54
2024/02/01 06:45:19;;;;;;;4.93;1.40;;;;;;;;;;6184803;28;20304;-57
2024/02/01 06:48:30;;;;;;;2.77;1.60;;;;;;;;;;6184276;28;20301;-56
2024/02/01 06:51:40;;;;;;;6.33;1.80;;;;;;;;;;6184831;28;20305;-57
2024/02/01 06:54:55;;;;;;;5.93;1.70;;;;;;;;;;6184620;28;20292;-57
2024/02/01 06:58:05;;;;;;;5.20;1.60;;;;;;;;;;6184254;28;20408;-56
2024/02/01 07:01:33;;;;;;;4.80;1.57;;;;;;;;;;6184943;28;20301;-59
2024/02/01 07:04:41;;;;;;;6.40;1.57;;;;;;;;;;6184422;28;20300;-58
2024/02/01 07:07:47;;;;;;;9.67;1.50;;;;;;;;;;6184569;28;20408;-57
2024/02/01 07:10:58;;;;;;;8.77;1.73;;;;;;;;;;6183868;28;20284;-56
2024/02/01 07:14:15;;;;;;;4.23;1.80;;;;;;;;;;6184513;28;20325;-55
2024/02/01 07:17:31;;;;;;;8.10;1.47;;;;;;;;;;6185287;28;20469;-55
2024/02/01 07:20:50;;;;;;;4.17;1.60;;;;;;;;;;6184297;28;20527;-54
2024/02/01 07:24:07;;;;;;;2.00;1.10;;;;;;;;;;6183970;28;20304;-55
2024/02/01 08:00:57;;;;;;;5.83;1.80;;;;;;;;;;6164945;28;20296;-56
2024/02/01 08:04:12;;;;;;;5.97;1.43;;;;;;;;;;6188620;28;20483;-56
2024/02/01 08:10:40;;;;;;;2.63;1.70;;;;;;;;;;6188248;28;20293;-55
2024/02/01 08:13:48;;;;;;;4.97;1.47;;;;;;;;;;6188387;28;20569;-55
2024/02/01 08:16:52;;;;;;;6.33;1.40;;;;;;;;;;6189005;28;20566;-55
2024/02/01 08:19:56;;;;;;;2.57;1.40;;;;;;;;;;6188326;28;20376;-56
2024/02/01 08:23:02;;;;;;;5.87;1.37;;;;;;;;;;6188193;28;20299;-58
2024/02/01 08:26:06;;;;;;;3.23;1.43;;;;;;;;;;6188580;28;20425;-55
2024/02/01 08:29:11;;;;;;;4.27;1.60;;;;;;;;;;6189550;28;20291;-57
2024/02/01 08:32:19;;;;;;;5.47;1.70;;;;;;;;;;6170826;28;20300;-58
2024/02/01 08:35:24;;;;;;;2.27;1.27;;;;;;;;;;6187976;28;20304;-53
2024/02/01 08:38:32;;;;;;;7.40;1.43;;;;;;;;;;6187776;28;20316;-56
2024/02/01 08:41:37;;;;;;;4.83;1.50;;;;;;;;;;6188510;28;20602;-53
2024/02/01 08:44:43;;;;;;;2.37;1.60;;;;;;;;;;6187634;28;20609;-55
2024/02/01 08:47:47;;;;;;;6.83;1.30;;;;;;;;;;6187822;28;20312;-56
2024/02/01 08:50:53;;;;;;;8.30;1.30;;;;;;;;;;6187038;28;20300;-54
2024/02/01 08:53:59;;;;;;;5.83;1.63;;;;;;;;;;6187114;28;20617;-56
2024/02/01 08:57:03;;;;;;;2.07;1.40;;;;;;;;;;6187791;28;20296;-54
2024/02/01 09:00:21;;;;;;;3.53;1.60;;;;;;;;;;6187143;28;20296;-56
2024/02/01 09:03:29;;;;;;;7.07;1.50;;;;;;;;;;6186583;28;20555;-57
2024/02/01 09:06:34;;;;;;;3.33;1.33;;;;;;;;;;6187371;28;20300;-56
2024/02/01 09:09:39;;;;;;;4.93;1.63;;;;;;;;;;6186950;28;20305;-56
2024/02/01 09:12:43;;;;;;;2.73;1.40;;;;;;;;;;6145738;28;20571;-57
2024/02/01 09:15:47;;;;;;;5.53;1.67;;;;;;;;;;6162858;29;20292;-56
2024/02/01 09:18:54;;;;;;;2.90;1.43;;;;;;;;;;6162761;28;20309;-56
2024/02/01 09:22:00;;;;;;;9.37;2.00;;;;;;;;;;6163130;29;20530;-55
2024/02/01 09:25:06;;;;;;;6.07;1.57;;;;;;;;;;6164404;28;20383;-55
2024/02/01 09:28:12;;;;;;;2.47;1.37;;;;;;;;;;6187032;28;20297;-57
2024/02/01 09:31:19;;;;;;;4.70;1.40;;;;;;;;;;6187247;28;20297;-56
2024/02/01 09:34:24;;;;;;;3.43;1.27;;;;;;;;;;6186410;28;20312;-56
2024/02/01 09:37:28;;;;;;;2.73;1.50;;;;;;;;;;6187662;28;20323;-57
2024/02/01 09:40:33;;;;;;;6.60;1.60;;;;;;;;;;6181022;28;20585;-56
2024/02/01 09:43:39;;;;;;;8.27;1.47;;;;;;;;;;6168640;28;20328;-55
2024/02/01 09:46:43;;;;;;;8.60;1.63;;;;;;;;;;6187101;28;20291;-57
2024/02/01 09:49:48;;;;;;;3.97;1.50;;;;;;;;;;6168819;28;20293;-56
2024/02/01 09:52:53;;;;;;;6.80;1.40;;;;;;;;;;6186860;28;20481;-57
2024/02/01 09:55:59;;;;;;;2.33;1.50;;;;;;;;;;6186158;28;20290;-56
2024/02/01 09:59:03;;;;;;;7.63;1.30;;;;;;;;;;6186171;28;20293;-56
2024/02/01 10:02:08;;;;;;;6.17;1.30;;;;;;;;;;6185861;28;20329;-57
2024/02/01 10:05:12;;;;;;;2.17;1.13;;;;;;;;;;6186272;28;20460;-57
2024/02/01 10:08:17;;;;;;;7.90;1.57;;;;;;;;;;6185972;28;20306;-55
2024/02/01 10:11:23;;;;;;;6.23;1.03;;;;;;;;;;6186107;28;20305;-56
2024/02/01 10:14:37;;;;;;;3.87;1.20;;;;;;;;;;6185668;28;20303;-56
2024/02/01 10:17:49;;;;;;;4.13;1.20;;;;;;;;;;6186617;28;20390;-55
2024/02/01 10:20:54;;;;;;;4.00;1.60;;;;;;;;;;6185571;28;20292;-54
2024/02/01 10:24:04;;;;;;;5.77;1.23;;;;;;;;;;6185224;28;20304;-55
2024/02/01 10:27:10;;;;;;;3.17;1.37;;;;;;;;;;6186084;28;20473;-57
2024/02/01 10:30:16;;;;;;;3.30;1.90;;;;;;;;;;6185776;28;20307;-55
2024/02/01 10:33:25;;;;;;;6.90;1.33;;;;;;;;;;6184834;28;20297;-57
2024/02/01 10:36:32;;;;;;;4.33;1.10;;;;;;;;;;6185755;28;20304;-57
2024/02/01 10:39:40;;;;;;;1.73;1.30;;;;;;;;;;6185025;28;20292;-56
2024/02/01 10:42:47;;;;;;;4.33;1.60;;;;;;;;;;6185266;28;20378;-56
2024/02/01 10:46:05;;;;;;;15.23;1.50;;;;;;;;;;6185075;28;20301;-58
2024/02/01 10:49:17;;;;;;;1.90;1.00;;;;;;;;;;6184511;28;20303;-57
2024/02/01 10:52:23;;;;;;;5.40;1.50;;;;;;;;;;6185092;28;20524;-56
2024/02/01 10:55:27;;;;;;;2.83;1.33;;;;;;;;;;6186171;28;20298;-55
2024/02/01 10:58:32;;;;;;;2.67;1.30;;;;;;;;;;6185379;28;20296;-58
2024/02/01 11:01:37;;;;;;;6.30;1.47;;;;;;;;;;6185324;28;20555;-57
2024/02/01 11:04:42;;;;;;;6.73;1.40;;;;;;;;;;6185091;28;20292;-52
2024/02/01 11:07:49;;;;;;;7.83;1.53;;;;;;;;;;6167520;28;20581;-55
2024/02/01 11:10:58;;;;;;;4.53;1.80;;;;;;;;;;6186557;28;20296;-59
2024/02/01 11:14:10;;;;;;;2.60;1.10;;;;;;;;;;6183429;28;20303;-56
2024/02/01 11:17:19;;;;;;;2.50;1.23;;;;;;;;;;6185448;28;20304;-59
2024/02/01 11:20:25;;;;;;;5.90;1.50;;;;;;;;;;6184277;28;20317;-55
2024/02/01 11:23:38;;;;;;;7.20;1.20;;;;;;;;;;6183789;28;20336;-55
2024/02/01 11:26:46;;;;;;;3.30;1.23;;;;;;;;;;6184912;28;20301;-56
2024/02/01 11:29:55;;;;;;;6.87;1.20;;;;;;;;;;6184289;28;20477;-55
2024/02/01 11:33:18;;;;;;;3.97;1.20;;;;;;;;;;6184246;28;20305;-56
2024/02/01 11:36:22;;;;;;;5.30;1.10;;;;;;;;;;6184413;28;20305;-56
2024/02/01 11:39:27;;;;;;;11.83;1.60;;;;;;;;;;6175929;28;20312;-55
2024/02/01 11:42:31;;;;;;;3.17;1.20;;;;;;;;;;6184600;28;20298;-56
2024/02/01 11:45:38;;;;;;;1.00;1.00;;;;;;;;;;6184089;28;20301;-57
2024/02/01 11:48:43;;;;;;;4.17;1.33;;;;;;;;;;6184620;28;20451;-56
2024/02/01 11:51:52;;;;;;;3.30;1.53;;;;;;;;;;6184948;28;20426;-56
2024/02/01 11:54:56;;;;;;;1.90;1.00;;;;;;;;;;6183850;28;20293;-56
2024/02/01 11:58:00;;;;;;;1.00;1.00;;;;;;;;;;6183947;28;20293;-54
2024/02/01 12:01:06;;;;;;;6.50;1.07;;;;;;;;;;6184766;28;20302;-57
2024/02/01 12:04:21;;;;;;;2.63;0.90;;;;;;;;;;6183708;28;20293;-57
2024/02/01 12:07:25;;;;;;;2.27;1.07;;;;;;;;;;6184610;28;20301;-56
2024/02/01 12:10:31;;;;;;;3.60;1.00;;;;;;;;;;6183797;28;20300;-56
2024/02/01 12:13:35;;;;;;;4.13;1.20;;;;;;;;;;6183898;28;20309;-56
2024/02/01 12:16:41;;;;;;;4.10;0.87;;;;;;;;;;6184148;28;20320;-56
2024/02/01 12:19:47;;;;;;;5.90;1.10;;;;;;;;;;6183343;28;20292;-57
2024/02/01 12:22:56;;;;;;;3.33;1.00;;;;;;;;;;6182862;28;20246;-55
2024/02/01 12:26:03;;;;;;;1.33;1.00;;;;;;;;;;6184696;28;20584;-56
2024/02/01 12:29:07;;;;;;;0.80;0.80;;;;;;;;;;6187755;28;20305;-57
2024/02/01 12:32:13;;;;;;;1.70;1.00;;;;;;;;;;6188569;28;20296;-57
2024/02/01 12:35:18;;;;;;;2.30;0.83;;;;;;;;;;6188084;28;20304;-57
2024/02/01 12:38:22;;;;;;;1.40;1.10;;;;;;;;;;6187956;28;20309;-55
2024/02/01 12:41:26;;;;;;;5.10;1.37;;;;;;;;;;6188427;28;20300;-57
2024/02/01 12:44:33;;;;;;;4.70;0.90;;;;;;;;;;6188656;28;20307;-57
2024/02/01 12:47:40;;;;;;;1.10;0.93;;;;;;;;;;6188446;28;20301;-58
2024/02/01 12:50:44;;;;;;;1.10;0.87;;;;;;;;;;6187462;28;20300;-56
2024/02/01 12:53:48;;;;;;;1.83;0.90;;;;;;;;;;6187673;28;20300;-56
2024/02/01 12:56:52;;;;;;;4.33;0.90;;;;;;;;;;6188231;28;20301;-53
2024/02/01 12:59:58;;;;;;;13.10;1.60;;;;;;;;;;6187541;28;20292;-57
2024/02/01 13:03:04;;;;;;;2.93;0.93;;;;;;;;;;6187370;28;20285;-57
2024/02/01 13:06:08;;;;;;;1.27;0.93;;;;;;;;;;6187823;28;20300;-55
2024/02/01 13:09:28;;;;;;;1.57;0.83;;;;;;;;;;6187086;28;20308;-57
2024/02/01 13:12:33;;;;;;;1.40;0.90;;;;;;;;;;6169355;28;20481;-56
2024/02/01 13:15:37;;;;;;;6.80;0.90;;;;;;;;;;6186661;28;20303;-55
2024/02/01 13:18:42;;;;;;;1.33;0.90;;;;;;;;;;6186907;28;20294;-59
2024/02/01 13:21:47;;;;;;;2.20;0.70;;;;;;;;;;6187276;28;20293;-55
2024/02/01 13:24:51;;;;;;;11.30;0.87;;;;;;;;;;6188467;28;20321;-56
2024/02/01 13:27:55;;;;;;;4.10;0.90;;;;;;;;;;6187551;28;20448;-57
2024/02/01 13:30:59;;;;;;;0.80;0.80;;;;;;;;;;6186598;28;20297;-56
2024/02/01 13:34:05;;;;;;;4.10;1.20;;;;;;;;;;6186814;28;20292;-55
2024/02/01 13:37:10;;;;;;;3.37;0.80;;;;;;;;;;6186243;28;20299;-54
2024/02/01 13:40:15;;;;;;;1.50;0.90;;;;;;;;;;6186497;28;20299;-54
2024/02/01 13:43:21;;;;;;;4.97;0.73;;;;;;;;;;6186050;28;20307;-55
2024/02/01 13:46:24;;;;;;;3.33;1.00;;;;;;;;;;6186684;28;20315;-59
2024/02/01 13:49:30;;;;;;;4.60;1.00;;;;;;;;;;6186499;28;20320;-56
2024/02/01 13:52:34;;;;;;;0.73;0.73;;;;;;;;;;6186829;28;20354;-58
2024/02/01 13:55:38;;;;;;;4.03;0.90;;;;;;;;;;6186113;28;20305;-56
2024/02/01 13:58:42;;;;;;;7.47;3.43;;;;;;;;;;6186325;28;20301;-55
2024/02/01 14:01:46;;;;;;;0.77;0.73;;;;;;;;;;6186413;28;20303;-57
2024/02/01 14:04:52;;;;;;;2.63;0.90;;;;;;;;;;6185936;28;20437;-56
2024/02/01 14:07:56;;;;;;;5.60;0.87;;;;;;;;;;6186288;28;20296;-56
2024/02/01 14:10:59;;;;;;;1.80;0.90;;;;;;;;;;6185662;28;20291;-54
2024/02/01 14:14:04;;;;;;;4.10;1.00;;;;;;;;;;6185888;28;20336;-56
2024/02/01 14:17:08;;;;;;;0.83;0.80;;;;;;;;;;6186032;28;20295;-56
2024/02/01 14:20:14;;;;;;;1.13;0.60;;;;;;;;;;6185457;28;20295;-55
2024/02/01 14:23:19;;;;;;;1.37;0.77;;;;;;;;;;6184910;28;20457;-56
2024/02/01 14:26:24;;;;;;;1.43;1.00;;;;;;;;;;6185643;28;20294;-58
2024/02/01 14:29:28;;;;;;;1.53;0.93;;;;;;;;;;6185355;28;20300;-57
2024/02/01 14:32:31;;;;;;;0.90;0.90;;;;;;;;;;6185053;28;20421;-57
2024/02/01 14:35:37;;;;;;;1.90;0.90;;;;;;;;;;6185315;28;20622;-57
2024/02/01 14:38:41;;;;;;;1.30;1.00;;;;;;;;;;6185292;28;20304;-57
2024/02/01 14:41:46;;;;;;;3.00;1.23;;;;;;;;;;6185567;28;20293;-56
2024/02/01 14:44:49;;;;;;;1.60;1.20;;;;;;;;;;6184969;28;20302;-57
2024/02/01 14:47:54;;;;;;;1.07;0.63;;;;;;;;;;6185104;28;20367;-57
2024/02/01 14:50:59;;;;;;;3.40;0.87;;;;;;;;;;6185005;28;20298;-57
2024/02/01 14:54:05;;;;;;;1.83;0.90;;;;;;;;;;6184788;28;20295;-56
2024/02/01 14:57:09;;;;;;;1.50;0.80;;;;;;;;;;6185491;28;20313;-55
2024/02/01 15:00:15;;;;;;;2.87;0.80;;;;;;;;;;6185743;28;20300;-58
2024/02/01 15:03:20;;;;;;;3.27;1.10;;;;;;;;;;6184389;28;20295;-58
2024/02/01 15:06:26;;;;;;;1.07;0.80;;;;;;;;;;6185436;28;20301;-57
2024/02/01 15:09:34;;;;;;;1.50;1.00;;;;;;;;;;6184152;28;20345;-57
2024/02/01 15:12:38;;;;;;;2.53;0.80;;;;;;;;;;6185293;28;20295;-57
2024/02/01 15:15:42;;;;;;;0.90;0.90;;;;;;;;;;6183973;28;20303;-57
2024/02/01 15:19:02;;;;;;;0.73;0.70;;;;;;;;;;6184100;28;20287;-56
2024/02/01 15:22:09;;;;;;;1.63;0.97;;;;;;;;;;6184474;28;20300;-56
2024/02/01 15:25:14;;;;;;;2.73;0.90;;;;;;;;;;6183348;28;20409;-56
2024/02/01 15:28:18;;;;;;;0.90;0.90;;;;;;;;;;6184091;28;20590;-57
2024/02/01 15:31:23;;;;;;;1.70;0.80;;;;;;;;;;6184586;28;20310;-56
2024/02/01 15:34:27;;;;;;;0.97;0.87;;;;;;;;;;6184272;28;20371;-56
2024/02/01 15:37:33;;;;;;;1.20;1.00;;;;;;;;;;6184472;28;20312;-54
2024/02/01 15:40:37;;;;;;;0.90;0.87;;;;;;;;;;6184010;28;20595;-55
2024/02/01 15:43:41;;;;;;;2.53;1.00;;;;;;;;;;6184064;28;20346;-55
2024/02/01 15:46:45;;;;;;;0.90;0.90;;;;;;;;;;6184889;28;20296;-58
2024/02/01 15:49:49;;;;;;;3.37;1.13;;;;;;;;;;6184351;28;20291;-58
2024/02/01 15:52:56;;;;;;;4.20;1.00;;;;;;;;;;6184782;28;20292;-59
2024/02/01 15:56:00;;;;;;;5.63;0.80;;;;;;;;;;6184099;28;20292;-58
2024/02/01 15:59:04;;;;;;;5.60;1.23;;;;;;;;;;6182901;28;20504;-58
2024/02/01 16:02:08;;;;;;;1.20;1.07;;;;;;;;;;6188058;28;20296;-56
2024/02/01 16:05:12;;;;;;;1.00;0.90;;;;;;;;;;6188583;28;20453;-56
2024/02/01 16:08:17;;;;;;;2.57;1.10;;;;;;;;;;6188555;28;20299;-56
2024/02/01 16:11:24;;;;;;;3.83;1.37;;;;;;;;;;6189072;28;20677;-55
2024/02/01 16:14:28;;;;;;;5.40;1.00;;;;;;;;;;6188405;28;20296;-56
2024/02/01 16:17:32;;;;;;;2.50;0.97;;;;;;;;;;6188374;28;20304;-55
2024/02/01 16:20:40;;;;;;;1.33;1.20;;;;;;;;;;6186002;28;20293;-57
2024/02/01 16:23:46;;;;;;;1.33;1.23;;;;;;;;;;6187634;28;20297;-58
2024/02/01 16:26:52;;;;;;;4.87;1.30;;;;;;;;;;6188454;28;20307;-58
2024/02/01 16:30:05;;;;;;;1.03;1.03;;;;;;;;;;6187883;28;20295;-60
2024/02/01 16:33:16;;;;;;;4.10;1.50;;;;;;;;;;6186261;28;20327;-56
2024/02/01 16:36:44;;;;;;;1.93;1.30;;;;;;;;;;6162747;29;20305;-58
2024/02/01 16:39:54;;;;;;;1.60;1.13;;;;;;;;;;6163683;28;20301;-56
2024/02/01 16:42:58;;;;;;;6.07;1.30;;;;;;;;;;6163566;29;20369;-57
2024/02/01 16:46:06;;;;;;;3.97;1.10;;;;;;;;;;6163912;29;20521;-57
2024/02/01 16:49:11;;;;;;;1.00;1.00;;;;;;;;;;6163271;29;20589;-58
2024/02/01 16:52:43;;;;;;;3.00;1.10;;;;;;;;;;6147167;28;20317;-56
2024/02/01 16:55:53;;;;;;;2.93;1.10;;;;;;;;;;6163420;29;20329;-58
2024/02/01 16:58:58;;;;;;;2.33;1.50;;;;;;;;;;6163393;29;20305;-57
2024/02/01 17:02:02;;;;;;;7.53;1.50;;;;;;;;;;6164294;29;20298;-56
2024/02/01 17:05:07;;;;;;;4.00;1.17;;;;;;;;;;6136494;29;20553;-55
2024/02/01 17:08:29;;;;;;;1.60;1.50;;;;;;;;;;6162998;28;20306;-56
2024/02/01 17:11:35;;;;;;;3.80;1.10;;;;;;;;;;6163825;28;20296;-57
2024/02/01 17:14:40;;;;;;;1.73;0.83;;;;;;;;;;6161606;28;20296;-57
2024/02/01 17:17:44;;;;;;;1.83;1.30;;;;;;;;;;6163632;28;20300;-59
2024/02/01 17:20:48;;;;;;;5.33;1.13;;;;;;;;;;6163126;28;20484;-56
2024/02/01 17:23:52;;;;;;;2.60;1.43;;;;;;;;;;6163125;28;20299;-56
2024/02/01 17:27:01;;;;;;;3.70;1.20;;;;;;;;;;6179920;28;20290;-58
2024/02/01 17:30:08;;;;;;;0.97;0.97;;;;;;;;;;6186920;28;20299;-56
2024/02/01 17:33:39;;;;;;;4.53;1.10;;;;;;;;;;6168216;28;20423;-56
2024/02/01 17:36:43;;;;;;;7.10;1.57;;;;;;;;;;6186942;28;20291;-55
2024/02/01 17:39:48;;;;;;;7.67;1.37;;;;;;;;;;6160155;28;20442;-55
2024/02/01 17:42:53;;;;;;;2.60;1.30;;;;;;;;;;6187112;28;20295;-56
2024/02/01 17:45:58;;;;;;;6.93;1.50;;;;;;;;;;6186877;28;20296;-56
2024/02/01 17:49:02;;;;;;;7.27;1.20;;;;;;;;;;6186709;28;20294;-59
2024/02/01 17:52:26;;;;;;;1.63;1.20;;;;;;;;;;6182216;28;20308;-58
2024/02/01 17:55:41;;;;;;;12.13;1.63;;;;;;;;;;6162057;29;20300;-58
2024/02/01 17:58:47;;;;;;;4.17;1.07;;;;;;;;;;6162032;28;20607;-58
2024/02/01 18:01:51;;;;;;;5.57;1.10;;;;;;;;;;6162234;29;20300;-57
2024/02/01 18:04:56;;;;;;;2.43;1.30;;;;;;;;;;6161507;29;20295;-56
2024/02/01 18:08:00;;;;;;;3.67;1.30;;;;;;;;;;6161674;28;20483;-56
2024/02/01 18:11:04;;;;;;;2.63;1.20;;;;;;;;;;6162464;28;20291;-56
2024/02/01 18:14:09;;;;;;;5.73;1.30;;;;;;;;;;6162028;28;20292;-58
2024/02/01 18:17:28;;;;;;;5.27;1.40;;;;;;;;;;6162536;28;20536;-57
2024/02/01 18:20:33;;;;;;;0.93;0.90;;;;;;;;;;6160320;29;20321;-57
2024/02/01 18:23:39;;;;;;;3.07;0.97;;;;;;;;;;6161010;28;20295;-57
2024/02/01 18:26:43;;;;;;;1.23;1.10;;;;;;;;;;6176730;28;20294;-56
2024/02/01 18:29:53;;;;;;;3.27;1.10;;;;;;;;;;6185498;28;20309;-59
2024/02/01 18:32:58;;;;;;;2.97;0.97;;;;;;;;;;6174594;28;20615;-58
2024/02/01 18:36:10;;;;;;;4.90;1.30;;;;;;;;;;6185326;28;20312;-55
2024/02/01 18:39:20;;;;;;;3.90;1.20;;;;;;;;;;6184839;28;20336;-55
2024/02/01 18:42:53;;;;;;;6.60;1.17;;;;;;;;;;6182962;28;20295;-58
2024/02/01 18:46:00;;;;;;;2.83;1.20;;;;;;;;;;6181233;28;20304;-57
2024/02/01 18:49:05;;;;;;;2.17;1.20;;;;;;;;;;6167021;28;20291;-57
2024/02/01 18:52:09;;;;;;;3.43;1.27;;;;;;;;;;6185161;28;20318;-58
2024/02/01 18:55:14;;;;;;;3.83;1.20;;;;;;;;;;6177644;28;20299;-57
2024/02/01 18:58:31;;;;;;;3.20;1.10;;;;;;;;;;6182416;28;20293;-58
2024/02/01 19:01:37;;;;;;;1.97;1.00;;;;;;;;;;6184862;28;20305;-57
2024/02/01 19:04:41;;;;;;;4.20;1.03;;;;;;;;;;6184985;28;20305;-58
2024/02/01 19:07:46;;;;;;;4.97;1.17;;;;;;;;;;6184846;28;20299;-57
2024/02/01 19:10:51;;;;;;;2.90;1.10;;;;;;;;;;6184374;28;20302;-59
2024/02/01 19:13:58;;;;;;;3.40;1.60;;;;;;;;;;6184537;28;20299;-58